Time;durP1;ratioP1;P1;durP2;ratioP2;P2;SDS_P1;SDS_P2;PMS_P1;PMS_P2;Temp;Humidity;BMP_temperature;BMP_pressure;BME280_temperature;BME280_humidity;BME280_pressure;Samples;Min_cycle;Max_cycle;Signal;HPM_P1;HPM_P2
2021/03/03 00:00:15;;;;;;;92.90;43.05;;;;;;;;;;4616927;23;9999813;-95
2021/03/03 00:03:22;;;;;;;83.60;44.17;;;;;;;;;;4947923;29;20062;-94
2021/03/03 00:06:18;;;;;;;101.57;44.75;;;;;;;;;;4957823;29;20063;-94
2021/03/03 00:09:27;;;;;;;100.15;44.97;;;5.80;99.90;;;;;;4955518;29;20049;-94
2021/03/03 00:12:37;;;;;;;95.57;43.47;;;5.90;99.90;;;;;;4949252;29;20057;-92
2021/03/03 00:15:28;;;;;;;100.93;45.45;;;;;;;;;;4931977;23;20044;-92
2021/03/03 00:18:08;;;;;;;93.40;45.65;;;;;;;;;;4950362;29;20043;-92
2021/03/03 00:21:02;;;;;;;100.70;48.75;;;;;;;;;;4934436;29;20060;-90
2021/03/03 00:23:53;;;;;;;99.63;50.45;;;;;;;;;;4949606;29;20055;-90
2021/03/03 00:26:59;;;;;;;101.63;48.35;;;5.70;99.90;;;;;;4937333;29;20056;-94
2021/03/03 00:29:46;;;;;;;111.03;48.70;;;;;;;;;;4927417;29;20050;-93
2021/03/03 00:32:34;;;;;;;118.43;50.90;;;;;;;;;;4917695;29;20064;-92
2021/03/03 00:35:10;;;;;;;112.10;54.70;;;;;;;;;;4929633;29;20526;-93
2021/03/03 00:37:53;;;;;;;105.13;47.72;;;;;;;;;;4908758;29;20062;-93
2021/03/03 00:40:28;;;;;;;105.78;48.70;;;;;;;;;;4921756;29;20488;-92
2021/03/03 00:43:12;;;;;;;109.05;51.47;;;;;;;;;;4953463;29;20054;-92
2021/03/03 00:45:56;;;;;;;110.45;47.30;;;;;;;;;;4951068;29;20484;-91
2021/03/03 00:48:56;;;;;;;108.05;44.28;;;5.80;99.90;;;;;;4952984;29;20046;-91
2021/03/03 00:51:39;;;;;;;111.72;47.95;;;;;;;;;;4921031;29;20048;-93
2021/03/03 00:54:09;;;;;;;99.23;41.00;;;;;;;;;;4919048;29;20244;-92
2021/03/03 00:56:46;;;;;;;105.55;45.00;;;;;;;;;;4947327;29;20308;-92
2021/03/03 00:59:31;;;;;;;102.03;47.58;;;;;;;;;;4919174;29;20063;-91
2021/03/03 01:02:00;;;;;;;110.00;47.78;;;;;;;;;;4938647;29;20048;-91
2021/03/03 01:04:50;;;;;;;100.95;46.10;;;;;;;;;;4933552;29;20039;-93
2021/03/03 01:07:24;;;;;;;91.30;39.13;;;;;;;;;;4933517;29;20059;-91
2021/03/03 01:09:55;;;;;;;94.50;39.50;;;;;;;;;;4924184;29;20058;-91
2021/03/03 01:12:30;;;;;;;78.28;36.30;;;;;;;;;;4946458;29;20060;-92
2021/03/03 01:15:09;;;;;;;80.32;39.95;;;;;;;;;;4934011;29;20629;-92
2021/03/03 01:18:02;;;;;;;89.57;36.33;;;;;;;;;;4938530;29;20556;-91
2021/03/03 01:20:45;;;;;;;105.78;37.08;;;;;;;;;;4927879;29;20059;-93
2021/03/03 01:23:20;;;;;;;88.90;37.92;;;;;;;;;;4933962;29;20071;-93
2021/03/03 01:25:52;;;;;;;91.05;37.47;;;;;;;;;;4938194;29;20335;-93
2021/03/03 01:28:34;;;;;;;82.05;37.33;;;;;;;;;;4914174;29;20072;-92
2021/03/03 01:31:05;;;;;;;98.03;40.03;;;;;;;;;;4933690;29;20517;-91
2021/03/03 01:33:36;;;;;;;82.28;36.65;;;;;;;;;;4916671;29;20149;-93
2021/03/03 01:36:10;;;;;;;103.80;39.20;;;;;;;;;;4935312;29;20063;-92
2021/03/03 01:39:33;;;;;;;173.30;40.45;;;5.30;99.90;;;;;;4924846;29;20047;-90
2021/03/03 01:42:03;;;;;;;101.35;41.15;;;;;;;;;;4918590;29;20052;-93
2021/03/03 01:44:40;;;;;;;103.68;38.08;;;;;;;;;;4935158;29;20058;-92
2021/03/03 01:47:26;;;;;;;95.47;39.92;;;;;;;;;;4895202;29;20075;-94
2021/03/03 01:50:10;;;;;;;111.43;45.85;;;;;;;;;;4935049;29;20047;-93
2021/03/03 01:52:49;;;;;;;111.22;42.08;;;;;;;;;;4949359;29;20059;-92
2021/03/03 01:55:34;;;;;;;99.00;45.08;;;;;;;;;;4935497;29;20047;-91
2021/03/03 01:58:07;;;;;;;;;;;5.40;99.90;;;;;;4929224;29;20055;-90
2021/03/03 02:00:50;;;;;;;97.35;41.97;;;;;;;;;;4938500;29;19930;-94
2021/03/03 02:03:38;;;;;;;107.55;42.88;;;;;;;;;;4900980;29;20056;-91
2021/03/03 02:07:19;;;;;;;160.00;44.40;;;5.20;99.90;;;;;;4936161;29;20055;-91
2021/03/03 02:10:41;;;;;;;97.78;43.25;;;5.30;99.90;;;;;;4908550;29;20064;-92
2021/03/03 02:13:41;;;;;;;110.60;43.70;;;5.30;99.90;;;;;;4928029;29;20055;-90
2021/03/03 02:16:29;;;;;;;89.72;42.78;;;;;;;;;;4919800;29;20044;-92
2021/03/03 02:19:17;;;;;;;124.55;43.65;;;;;;;;;;4950525;29;20062;-89
2021/03/03 02:22:14;;;;;;;128.45;43.67;;;;;;;;;;4939083;29;20047;-91
2021/03/03 02:24:56;;;;;;;96.07;44.67;;;5.30;99.90;;;;;;4926238;29;20064;-92
2021/03/03 02:27:45;;;;;;;108.95;46.67;;;;;;;;;;4924561;29;20059;-92
2021/03/03 02:30:33;;;;;;;96.35;42.30;;;;;;;;;;4958019;29;20047;-92
2021/03/03 02:33:04;;;;;;;145.88;48.90;;;5.30;99.90;;;;;;4919195;29;20055;-93
2021/03/03 02:35:57;;;;;;;103.40;48.95;;;5.30;99.90;;;;;;4926668;28;20042;-92
2021/03/03 02:39:25;;;;;;;123.55;47.97;;;5.30;99.90;;;;;;4938344;29;20062;-93
2021/03/03 02:42:18;;;;;;;102.28;38.17;;;;;;;;;;4922358;29;20058;-93
2021/03/03 02:45:25;;;;;;;75.72;34.53;;;5.30;99.90;;;;;;4948469;29;20109;-91
2021/03/03 02:48:09;;;;;;;76.90;38.75;;;5.30;99.90;;;;;;4930701;29;20062;-93
2021/03/03 02:50:58;;;;;;;83.50;38.58;;;;;;;;;;4918827;29;20067;-92
2021/03/03 02:53:29;;;;;;;109.53;43.30;;;;;;;;;;4606072;29;10000962;-91
2021/03/03 02:55:58;;;;;;;109.25;43.83;;;;;;;;;;4913635;29;20057;-91
2021/03/03 02:58:28;;;;;;;141.90;51.83;;;;;;;;;;4927380;29;20393;-92
2021/03/03 03:01:02;;;;;;;115.75;45.33;;;;;;;;;;4930586;29;20047;-92
2021/03/03 03:03:39;;;;;;;114.03;43.30;;;;;;;;;;4947296;29;20062;-92
2021/03/03 03:06:30;;;;;;;185.25;57.38;;;5.10;99.90;;;;;;4905116;29;20043;-92
2021/03/03 03:09:01;;;;;;;158.25;55.03;;;;;;;;;;4938830;29;20066;-93
2021/03/03 03:11:36;;;;;;;193.68;53.33;;;;;;;;;;4925968;29;20072;-91
2021/03/03 03:14:27;;;;;;;243.18;64.07;;;;;;;;;;4932045;29;20059;-91
2021/03/03 03:17:00;;;;;;;134.15;54.15;;;5.10;99.90;;;;;;4938965;29;20056;-92
2021/03/03 03:19:43;;;;;;;163.13;50.55;;;5.20;99.90;;;;;;4913908;29;20065;-93
2021/03/03 03:22:15;;;;;;;162.38;54.25;;;;;;;;;;4924279;29;20062;-94
2021/03/03 03:24:45;;;;;;;178.50;56.80;;;;;;;;;;4916218;29;20040;-93
2021/03/03 03:27:28;;;;;;;136.48;54.45;;;5.00;99.90;;;;;;4927387;29;20047;-92
2021/03/03 03:30:16;;;;;;;145.18;59.00;;;;;;;;;;4941721;29;20051;-93
2021/03/03 03:32:48;;;;;;;321.35;80.85;;;;;;;;;;4910585;29;20052;-92
2021/03/03 03:35:33;;;;;;;204.90;62.00;;;;;;;;;;4944202;23;20039;-93
2021/03/03 03:38:17;;;;;;;185.25;56.53;;;;;;;;;;4961102;29;20519;-91
2021/03/03 03:41:03;;;;;;;183.75;59.08;;;5.20;99.90;;;;;;4960349;28;20061;-94
2021/03/03 03:43:52;;;;;;;169.02;57.58;;;;;;;;;;4907576;29;20063;-94
2021/03/03 03:46:30;;;;;;;205.68;58.55;;;5.30;99.90;;;;;;4950485;29;20161;-93
2021/03/03 03:49:04;;;;;;;162.13;58.20;;;;;;;;;;4952128;29;20059;-92
2021/03/03 03:51:51;;;;;;;236.45;72.32;;;;;;;;;;4952221;29;20062;-92
2021/03/03 03:54:20;;;;;;;310.52;82.38;;;;;;;;;;4951010;29;20546;-92
2021/03/03 03:57:09;;;;;;;215.63;78.15;;;;;;;;;;4950106;29;20058;-93
2021/03/03 03:59:54;;;;;;;260.90;81.50;;;;;;;;;;4941686;29;20055;-93
2021/03/03 04:02:42;;;;;;;206.73;67.95;;;;;;;;;;4937657;29;20059;-93
2021/03/03 04:05:28;;;;;;;314.45;90.80;;;;;;;;;;4930554;29;20074;-93
2021/03/03 04:08:09;;;;;;;240.65;74.20;;;;;;;;;;4938173;29;20047;-92
2021/03/03 04:10:40;;;;;;;239.82;79.68;;;;;;;;;;4968270;29;20057;-91
2021/03/03 04:13:26;;;;;;;261.55;78.65;;;;;;;;;;4937908;28;20045;-90
2021/03/03 04:16:07;;;;;;;173.75;65.47;;;;;;;;;;4973223;29;20047;-92
2021/03/03 04:18:45;;;;;;;212.23;65.20;;;;;;;;;;4956547;29;20063;-91
2021/03/03 04:21:29;;;;;;;254.07;75.28;;;;;;;;;;4929820;29;20057;-94
2021/03/03 04:24:01;;;;;;;199.43;70.40;;;;;;;;;;4937871;29;20059;-91
2021/03/03 04:26:38;;;;;;;242.80;70.50;;;;;;;;;;4962614;29;20039;-93
2021/03/03 04:29:29;;;;;;;156.18;59.47;;;;;;;;;;4928283;29;20046;-92
2021/03/03 04:32:14;;;;;;;167.75;66.70;;;;;;;;;;4959895;29;20069;-92
2021/03/03 04:35:04;;;;;;;215.00;69.18;;;;;;;;;;4936563;28;20030;-93
2021/03/03 04:38:01;;;;;;;206.85;71.65;;;;;;;;;;4947009;29;20054;-92
2021/03/03 04:40:49;;;;;;;288.77;88.45;;;;;;;;;;4942497;29;20051;-92
2021/03/03 04:43:34;;;;;;;270.60;75.03;;;;;;;;;;4914420;29;20051;-92
2021/03/03 04:46:17;;;;;;;362.30;87.68;;;;;;;;;;4932365;29;20049;-92
2021/03/03 04:49:05;;;;;;;178.63;65.38;;;;;;;;;;4943407;29;20061;-91
2021/03/03 04:52:02;;;;;;;291.75;79.85;;;;;;;;;;4945961;29;20062;-91
2021/03/03 04:54:34;;;;;;;244.30;80.40;;;;;;;;;;4943702;29;20066;-92
2021/03/03 04:57:20;;;;;;;284.65;81.88;;;;;;;;;;4924595;29;20062;-92
2021/03/03 05:00:07;;;;;;;242.63;71.57;;;;;;;;;;4931623;29;20051;-92
2021/03/03 05:02:55;;;;;;;294.92;77.18;;;;;;;;;;4961440;29;20053;-92
2021/03/03 05:05:40;;;;;;;223.02;76.85;;;;;;;;;;4928621;29;20042;-92
2021/03/03 05:08:33;;;;;;;240.07;80.00;;;;;;;;;;4939988;29;20055;-92
2021/03/03 05:11:18;;;;;;;264.30;73.43;;;;;;;;;;4944812;29;20046;-91
2021/03/03 05:13:52;;;;;;;182.48;63.28;;;;;;;;;;4920936;29;20419;-93
2021/03/03 05:16:38;;;;;;;154.80;58.55;;;;;;;;;;4911974;29;20070;-92
2021/03/03 05:19:32;;;;;;;200.52;61.72;;;;;;;;;;4934556;29;20047;-92
2021/03/03 05:22:49;;;;;;;210.43;68.33;;;5.40;99.90;;;;;;4957588;29;20055;-92
2021/03/03 05:25:44;;;;;;;342.65;88.03;;;5.30;99.90;;;;;;4975240;28;20308;-92
2021/03/03 05:28:40;;;;;;;253.07;70.68;;;;;;;;;;4946034;29;20073;-92
2021/03/03 05:31:28;;;;;;;398.73;109.82;;;;;;;;;;4944573;29;20046;-92
2021/03/03 05:34:03;;;;;;;349.92;81.93;;;5.40;99.90;;;;;;4951323;29;20039;-91
2021/03/03 05:36:36;;;;;;;282.95;81.57;;;;;;;;;;4964415;28;20047;-91
2021/03/03 05:39:45;;;;;;;238.70;72.10;;;;;;;;;;4914625;29;20057;-94
2021/03/03 05:43:13;;;;;;;179.02;64.80;;;5.40;99.90;;;;;;4903777;29;20049;-92
2021/03/03 05:46:03;;;;;;;187.90;69.18;;;5.40;99.90;;;;;;4888223;29;20042;-92
2021/03/03 05:48:46;;;;;;;141.98;57.28;;;;;;;;;;4911175;29;20063;-92
2021/03/03 05:51:19;;;;;;;183.55;63.50;;;;;;;;;;4894786;29;20052;-91
2021/03/03 05:54:10;;;;;;;249.68;83.22;;;5.40;99.90;;;;;;4879908;29;20060;-91
2021/03/03 05:56:57;;;;;;;215.32;77.40;;;;;;;;;;4910392;29;20089;-92
2021/03/03 06:00:04;;;;;;;291.15;73.90;;;;;;;;;;4906180;29;20044;-93
2021/03/03 06:02:56;;;;;;;233.57;67.32;;;;;;;;;;4885485;29;20067;-93
2021/03/03 06:05:42;;;;;;;251.77;79.43;;;;;;;;;;4897082;29;20059;-93
2021/03/03 06:08:30;;;;;;;260.23;81.70;;;;;;;;;;4887491;29;20280;-91
2021/03/03 06:11:15;;;;;;;290.42;95.18;;;;;;;;;;4886086;29;20057;-92
2021/03/03 06:14:03;;;;;;;340.52;90.15;;;;;;;;;;4898852;29;20056;-93
2021/03/03 06:16:47;;;;;;;211.82;71.75;;;;;;;;;;4909679;29;20049;-92
2021/03/03 06:19:31;;;;;;;251.77;71.68;;;;;;;;;;4952834;23;20040;-92
2021/03/03 06:22:42;;;;;;;188.70;63.88;;;5.60;99.90;;;;;;4908146;29;20051;-92
2021/03/03 06:25:49;;;;;;;156.23;57.85;;;;;;;;;;4926889;29;20040;-92
2021/03/03 06:28:42;;;;;;;156.48;59.30;;;;;;;;;;4924054;29;20052;-91
2021/03/03 06:31:25;;;;;;;164.40;61.30;;;;;;;;;;4933028;29;20047;-92
2021/03/03 06:34:34;;;;;;;265.75;80.70;;;;;;;;;;4911071;29;20078;-92
2021/03/03 06:37:04;;;;;;;239.93;78.45;;;;;;;;;;4905508;29;20473;-93
2021/03/03 06:39:36;;;;;;;212.40;63.97;;;;;;;;;;4884988;29;20058;-92
2021/03/03 06:42:26;;;;;;;257.08;73.00;;;;;;;;;;4900654;29;20058;-92
2021/03/03 06:44:57;;;;;;;171.95;60.75;;;;;;;;;;4929263;29;20054;-93
2021/03/03 06:47:49;;;;;;;161.13;55.88;;;;;;;;;;4901197;29;20058;-92
2021/03/03 06:50:20;;;;;;;170.70;59.70;;;;;;;;;;4899139;29;20048;-92
2021/03/03 06:52:55;;;;;;;167.77;58.97;;;;;;;;;;4917923;29;20144;-91
2021/03/03 06:55:46;;;;;;;182.73;64.53;;;5.30;99.90;;;;;;4925130;29;20052;-93
2021/03/03 06:58:26;;;;;;;165.88;62.42;;;;;;;;;;4894031;29;20051;-93
2021/03/03 07:01:35;;;;;;;231.82;70.22;;;;;;;;;;4911555;29;20066;-92
2021/03/03 07:04:43;;;;;;;209.48;65.88;;;;;;;;;;4919850;29;20063;-92
2021/03/03 07:07:28;;;;;;;284.05;86.13;;;;;;;;;;4882745;29;20623;-92
2021/03/03 07:09:59;;;;;;;286.83;74.53;;;5.30;99.90;;;;;;4914705;29;20060;-91
2021/03/03 07:12:48;;;;;;;252.73;73.57;;;;;;;;;;4881348;29;20056;-92
2021/03/03 07:15:34;;;;;;;188.25;63.95;;;;;;;;;;4896883;29;20067;-92
2021/03/03 07:18:43;;;;;;;197.95;64.00;;;5.30;99.90;;;;;;4910301;23;20048;-91
2021/03/03 07:21:35;;;;;;;183.30;62.00;;;;;;;;;;4913378;29;20052;-92
2021/03/03 07:24:16;;;;;;;186.70;63.42;;;;;;;;;;4912952;29;20044;-91
2021/03/03 07:26:48;;;;;;;196.88;66.93;;;;;;;;;;4889868;29;20051;-92
2021/03/03 07:29:19;;;;;;;224.77;68.18;;;;;;;;;;4879742;29;20067;-91
2021/03/03 07:31:52;;;;;;;209.23;68.30;;;;;;;;;;4896351;29;20052;-92
2021/03/03 07:34:23;;;;;;;196.63;67.68;;;;;;;;;;4898176;29;20081;-93
2021/03/03 07:36:57;;;;;;;192.52;64.82;;;;;;;;;;4898708;29;20064;-92
2021/03/03 07:39:40;;;;;;;175.00;58.30;;;;;;;;;;4915065;29;20048;-91
2021/03/03 07:42:16;;;;;;;272.50;73.03;;;;;;;;;;4920311;29;20061;-92
2021/03/03 07:44:50;;;;;;;210.95;70.53;;;5.40;99.90;;;;;;4894775;29;20052;-91
2021/03/03 07:47:45;;;;;;;229.20;71.38;;;5.30;99.90;;;;;;4921911;29;20072;-92
2021/03/03 07:50:22;;;;;;;199.43;64.53;;;5.50;99.90;;;;;;4895307;29;20048;-92
2021/03/03 07:52:56;;;;;;;207.88;69.63;;;;;;;;;;4907715;29;20079;-91
2021/03/03 07:55:28;;;;;;;173.70;64.55;;;;;;;;;;4899593;29;20052;-92
2021/03/03 07:58:00;;;;;;;171.00;63.13;;;;;;;;;;4939566;29;20056;-92
2021/03/03 08:00:56;;;;;;;184.98;59.80;;;5.60;99.90;;;;;;4900765;29;20052;-93
2021/03/03 08:07:24;;;;;;;285.60;74.00;;;5.50;99.90;;;;;;4901219;29;20048;-94
2021/03/03 08:10:38;;;;;;;189.88;60.75;;;;;;;;;;4938180;29;20056;-93
2021/03/03 08:13:33;;;;;;;305.05;86.07;;;;;;;;;;4952727;29;20047;-92
2021/03/03 08:16:23;;;;;;;273.83;75.97;;;;;;;;;;4934702;29;20063;-93
2021/03/03 08:19:01;;;;;;;251.70;77.03;;;;;;;;;;4924278;29;20066;-94
2021/03/03 08:22:39;;;;;;;306.50;90.35;;;5.60;99.90;;;;;;4889065;29;20056;-94
2021/03/03 08:25:58;;;;;;;172.52;61.08;;;;;;;;;;4934509;29;20056;-93
2021/03/03 08:28:47;;;;;;;150.82;56.88;;;;;;;;;;4900542;29;20095;-94
2021/03/03 08:39:12;;;;;;;169.38;53.40;;;;;;;;;;4896979;29;20068;-94
2021/03/03 08:42:31;;;;;;;142.23;51.90;;;;;;;;;;4883195;29;20059;-93
2021/03/03 08:45:30;;;;;;;150.32;53.05;;;;;;;;;;4877809;29;20068;-93
2021/03/03 08:48:15;;;;;;;162.82;57.95;;;;;;;;;;4865042;29;20048;-93
2021/03/03 08:50:49;;;;;;;212.18;65.95;;;;;;;;;;4898463;29;20043;-94
2021/03/03 08:53:58;;;;;;;150.55;54.30;;;;;;;;;;4881142;29;20063;-94
2021/03/03 08:57:51;;;;;;;;;;;;;;;;;;;;;
2021/03/03 09:07:56;;;;;;;186.52;59.92;;;;;;;;;;4912671;29;20060;-93
2021/03/03 09:11:18;;;;;;;219.32;60.58;;;;;;;;;;4915526;29;20055;-94
2021/03/03 09:17:18;;;;;;;138.40;51.20;;;;;;;;;;4935304;27;20054;-95
2021/03/03 09:21:13;;;;;;;159.75;58.20;;;;;;;;;;4920484;29;20068;-94
2021/03/03 09:24:49;;;;;;;;;;;6.30;99.90;;;;;;4878494;29;20599;-93
2021/03/03 09:28:09;;;;;;;120.68;52.00;;;;;;;;;;4859769;29;19924;-95
2021/03/03 09:31:33;;;;;;;130.20;50.75;;;;;;;;;;4868097;29;20057;-94
2021/03/03 09:34:32;;;;;;;131.45;53.47;;;;;;;;;;4983091;23;20067;-93
2021/03/03 09:37:47;;;;;;;126.35;54.45;;;;;;;;;;4956193;29;20055;-95
2021/03/03 09:51:27;;;;;;;141.57;53.28;;;;;;;;;;5073990;23;20057;-93
2021/03/03 09:55:07;;;;;;;113.07;48.92;;;;;;;;;;4940146;29;20054;-93
2021/03/03 09:58:17;;;;;;;124.53;52.08;;;;;;;;;;4874621;29;20098;-93
2021/03/03 10:01:01;;;;;;;114.20;49.45;;;;;;;;;;4876356;29;20075;-94
2021/03/03 10:03:46;;;;;;;114.05;42.70;;;;;;;;;;4865764;29;20067;-95
2021/03/03 10:07:04;;;;;;;96.88;44.13;;;;;;;;;;4874399;29;20049;-93
2021/03/03 10:14:10;;;;;;;119.80;49.70;;;;;;;;;;4901680;29;20042;-95
2021/03/03 10:17:21;;;;;;;111.18;45.38;;;;;;;;;;4961716;29;20037;-93
2021/03/03 10:20:29;;;;;;;107.40;50.10;;;;;;;;;;4940499;29;20059;-94
2021/03/03 10:23:42;;;;;;;118.10;49.20;;;;;;;;;;4962718;29;20063;-95
2021/03/03 10:26:51;;;;;;;116.88;46.78;;;;;;;;;;4946919;29;20105;-94
2021/03/03 10:32:44;;;;;;;128.80;51.17;;;;;;;;;;4961984;28;20051;-93
2021/03/03 10:36:04;;;;;;;143.50;53.73;;;7.20;99.90;;;;;;4939394;29;20051;-93
2021/03/03 10:38:40;;;;;;;111.60;48.13;;;;;;;;;;4922128;29;20060;-92
2021/03/03 10:42:07;;;;;;;104.85;45.50;;;;;;;;;;4898013;29;20056;-94
2021/03/03 10:45:26;;;;;;;99.28;47.75;;;;;;;;;;4931178;29;20054;-92
2021/03/03 10:49:11;;;;;;;117.70;49.83;;;;;;;;;;4986617;23;20047;-93
2021/03/03 10:55:26;;;;;;;120.53;48.58;;;;;;;;;;4936876;29;20045;-93
2021/03/03 10:58:14;;;;;;;102.88;43.88;;;;;;;;;;4919217;29;20060;-92
2021/03/03 11:01:01;;;;;;;119.57;48.30;;;;;;;;;;4920474;29;20127;-92
2021/03/03 11:04:15;;;;;;;107.88;48.30;;;;;;;;;;4946878;29;20853;-92
2021/03/03 11:06:46;;;;;;;105.57;52.13;;;;;;;;;;4925994;29;20039;-90
2021/03/03 11:09:23;;;;;;;116.47;48.00;;;;;;;;;;4926353;29;20079;-91
2021/03/03 11:12:15;;;;;;;125.68;53.67;;;;;;;;;;4912274;29;20044;-94
2021/03/03 11:15:21;;;;;;;109.93;51.65;;;;;;;;;;4934864;29;20427;-91
2021/03/03 11:18:36;;;;;;;120.60;45.50;;;;;;;;;;4888869;29;20051;-94
2021/03/03 11:21:30;;;;;;;142.27;58.10;;;;;;;;;;4919656;29;20529;-93
2021/03/03 11:24:05;;;;;;;115.72;50.33;;;;;;;;;;4929001;29;20701;-94
2021/03/03 11:26:38;;;;;;;111.85;52.25;;;;;;;;;;4913091;29;20056;-92
2021/03/03 11:29:10;;;;;;;122.03;49.35;;;;;;;;;;4909383;29;20044;-94
2021/03/03 11:31:56;;;;;;;110.68;43.45;;;;;;;;;;4934152;29;20059;-93
2021/03/03 11:34:49;;;;;;;104.10;49.22;;;;;;;;;;4937098;23;20125;-94
2021/03/03 11:40:55;;;;;;;101.60;43.35;;;;;;;;;;4906148;29;20056;-94
2021/03/03 11:44:09;;;;;;;105.32;44.80;;;;;;;;;;4901872;29;20062;-94
2021/03/03 11:53:59;;;;;;;92.82;46.42;;;;;;;;;;4894724;29;20052;-92
2021/03/03 11:57:04;;;;;;;98.25;48.30;;;8.60;99.90;;;;;;4876658;29;20036;-93
2021/03/03 11:59:46;;;;;;;96.55;47.00;;;;;;;;;;4900928;29;20342;-92
2021/03/03 12:06:02;;;;;;;91.20;44.50;;;;;;;;;;4906927;29;20400;-93
2021/03/03 12:08:56;;;;;;;102.85;45.78;;;;;;;;;;4898639;29;20053;-91
2021/03/03 12:11:32;;;;;;;103.38;48.63;;;;;;;;;;4883362;29;20074;-93
2021/03/03 12:14:06;;;;;;;114.05;45.13;;;;;;;;;;4872715;29;20417;-92
2021/03/03 12:16:45;;;;;;;94.65;45.35;;;;;;;;;;4871168;29;20068;-92
2021/03/03 12:19:14;;;;;;;102.15;46.92;;;;;;;;;;4874569;29;20052;-93
2021/03/03 12:22:00;;;;;;;91.55;44.25;;;;;;;;;;4885954;29;20496;-94
2021/03/03 12:25:13;;;;;;;94.63;48.30;;;;;;;;;;4874876;29;20056;-94
2021/03/03 12:28:01;;;;;;;91.53;43.20;;;;;;;;;;4894867;29;20051;-93
2021/03/03 12:30:37;;;;;;;87.05;41.65;;;;;;;;;;4928601;23;20189;-93
2021/03/03 12:33:11;;;;;;;102.25;44.95;;;;;;;;;;4934934;28;20050;-92
2021/03/03 12:35:43;;;;;;;100.82;49.63;;;;;;;;;;4952707;28;20062;-92
2021/03/03 12:38:17;;;;;;;103.80;46.90;;;;;;;;;;4947072;28;20059;-93
2021/03/03 12:40:47;;;;;;;103.25;48.50;;;;;;;;;;4938122;28;20055;-94
2021/03/03 12:43:40;;;;;;;105.05;48.45;;;;;;;;;;4925430;28;20620;-95
2021/03/03 12:46:09;;;;;;;114.40;49.42;;;;;;;;;;4932275;28;20050;-93
2021/03/03 12:48:38;;;;;;;108.00;48.08;;;;;;;;;;4951738;28;20055;-92
2021/03/03 12:51:11;;;;;;;117.00;53.80;;;;;;;;;;4968977;28;20042;-92
2021/03/03 12:53:41;;;;;;;113.75;57.72;;;;;;;;;;4949521;28;20462;-92
2021/03/03 12:56:13;;;;;;;119.68;52.25;;;;;;;;;;4943324;28;20269;-94
2021/03/03 12:58:45;;;;;;;118.95;54.10;;;;;;;;;;4962242;28;20391;-93
2021/03/03 13:01:15;;;;;;;119.68;54.83;;;;;;;;;;4963552;28;20054;-92
2021/03/03 13:03:49;;;;;;;118.65;53.50;;;;;;;;;;4944790;28;20059;-94
2021/03/03 13:06:18;;;;;;;119.72;50.85;;;;;;;;;;4940785;28;20047;-92
2021/03/03 13:08:49;;;;;;;122.45;51.03;;;;;;;;;;4927005;28;20062;-92
2021/03/03 13:11:36;;;;;;;121.40;52.92;;;;;;;;;;4971548;28;20588;-94
2021/03/03 13:14:06;;;;;;;119.03;55.15;;;;;;;;;;4935499;28;20442;-93
2021/03/03 13:17:11;;;;;;;105.82;48.45;;;;;;;;;;4948602;29;20576;-94
2021/03/03 13:19:51;;;;;;;119.88;48.72;;;;;;;;;;4951016;28;20051;-92
2021/03/03 13:22:22;;;;;;;112.45;52.22;;;;;;;;;;4983119;28;20407;-91
2021/03/03 13:24:51;;;;;;;122.97;51.60;;;;;;;;;;4957759;28;20075;-93
2021/03/03 13:27:24;;;;;;;135.50;57.10;;;;;;;;;;4940559;29;20418;-91
2021/03/03 13:30:11;;;;;;;120.75;54.95;;;;;;;;;;4959188;28;20051;-92
2021/03/03 13:32:51;;;;;;;129.90;59.03;;;;;;;;;;4972143;28;20066;-93
2021/03/03 13:35:50;;;;;;;134.52;56.88;;;;;;;;;;4967251;28;20534;-92
2021/03/03 13:38:18;;;;;;;137.82;59.08;;;;;;;;;;4967376;28;20644;-92
2021/03/03 13:40:48;;;;;;;130.93;60.85;;;;;;;;;;4949542;28;20054;-92
2021/03/03 13:43:18;;;;;;;135.65;59.13;;;;;;;;;;4970220;28;20051;-90
2021/03/03 13:45:46;;;;;;;139.65;64.60;;;;;;;;;;4934441;29;20055;-91
2021/03/03 13:48:21;;;;;;;144.27;66.57;;;;;;;;;;4932255;28;20058;-93
2021/03/03 13:50:52;;;;;;;136.88;61.25;;;;;;;;;;4929016;29;20546;-92
2021/03/03 13:53:25;;;;;;;151.52;60.42;;;;;;;;;;4939411;28;20054;-92
2021/03/03 13:55:59;;;;;;;129.40;61.58;;;;;;;;;;4964925;28;20826;-93
2021/03/03 13:58:44;;;;;;;134.43;55.65;;;;;;;;;;4951730;23;20059;-90
2021/03/03 14:01:23;;;;;;;144.40;63.85;;;;;;;;;;4931904;29;20066;-92
2021/03/03 14:04:22;;;;;;;142.43;62.42;;;;;;;;;;4912675;29;20052;-92
2021/03/03 14:07:02;;;;;;;147.35;70.05;;;;;;;;;;4903437;29;20078;-92
2021/03/03 14:09:50;;;;;;;152.07;61.50;;;;;;;;;;4916758;29;20040;-91
2021/03/03 14:12:29;;;;;;;150.30;65.03;;;;;;;;;;4926604;29;20051;-92
2021/03/03 14:15:04;;;;;;;176.80;71.15;;;;;;;;;;4915050;29;20052;-91
2021/03/03 14:17:41;;;;;;;155.57;67.68;;;;;;;;;;4917812;29;20583;-91
2021/03/03 14:20:12;;;;;;;170.70;67.63;;;;;;;;;;4905845;29;20488;-91
2021/03/03 14:23:13;;;;;;;186.60;68.72;;;;;;;;;;4905165;29;20048;-93
2021/03/03 14:25:44;;;;;;;184.32;70.50;;;;;;;;;;4932830;29;20095;-92
2021/03/03 14:28:19;;;;;;;159.43;73.53;;;;;;;;;;4913982;29;20055;-92
2021/03/03 14:31:38;;;;;;;172.23;66.88;;;;;;;;;;4934312;29;20056;-95
2021/03/03 14:34:21;;;;;;;175.52;73.00;;;;;;;;;;4902485;29;20048;-94
2021/03/03 14:37:21;;;;;;;174.38;74.47;;;;;;;;;;4910437;29;20640;-93
2021/03/03 14:40:30;;;;;;;166.60;70.60;;;;;;;;;;4916413;29;20054;-93
2021/03/03 14:43:18;;;;;;;158.75;70.90;;;;;;;;;;4914230;29;20380;-94
2021/03/03 14:46:06;;;;;;;173.57;75.47;;;;;;;;;;4912059;29;20056;-92
2021/03/03 14:48:35;;;;;;;150.80;68.32;;;;;;;;;;4918650;29;20048;-94
2021/03/03 14:51:09;;;;;;;145.43;65.57;;;;;;;;;;4892936;29;20048;-94
2021/03/03 14:53:43;;;;;;;168.52;67.43;;;;;;;;;;4907141;29;20060;-94
2021/03/03 14:56:19;;;;;;;162.82;70.95;;;;;;;;;;4905561;29;20053;-94
2021/03/03 14:58:50;;;;;;;172.88;73.78;;;;;;;;;;4891882;29;20062;-92
2021/03/03 15:01:27;;;;;;;161.73;69.18;;;;;;;;;;4897706;29;20052;-91
2021/03/03 15:04:11;;;;;;;149.27;66.43;;;;;;;;;;4893964;29;20045;-93
2021/03/03 15:06:57;;;;;;;119.03;57.67;;;;;;;;;;4884975;29;20053;-93
2021/03/03 15:10:04;;;;;;;128.73;54.97;;;8.30;99.90;;;;;;4907447;29;20052;-92
2021/03/03 15:12:45;;;;;;;100.72;45.80;;;;;;;;;;4921822;29;20064;-94
2021/03/03 15:15:19;;;;;;;96.97;45.42;;;;;;;;;;4915008;29;20063;-93
2021/03/03 15:17:53;;;;;;;101.50;46.38;;;;;;;;;;4905599;29;20060;-91
2021/03/03 15:20:24;;;;;;;99.82;48.28;;;;;;;;;;4861682;29;20053;-91
2021/03/03 15:22:52;;;;;;;100.18;44.05;;;;;;;;;;4910511;29;20504;-91
2021/03/03 15:25:26;;;;;;;93.70;44.90;;;;;;;;;;4906150;29;20060;-91
2021/03/03 15:27:59;;;;;;;93.72;42.88;;;;;;;;;;4901966;29;20048;-91
2021/03/03 15:30:29;;;;;;;77.88;36.85;;;;;;;;;;4890762;29;20059;-89
2021/03/03 15:33:02;;;;;;;72.55;36.47;;;;;;;;;;4909319;29;20053;-88
2021/03/03 15:35:34;;;;;;;80.60;36.08;;;;;;;;;;4902674;29;20063;-90
2021/03/03 15:38:04;;;;;;;69.35;33.28;;;;;;;;;;4899412;29;20056;-89
2021/03/03 15:40:32;;;;;;;63.17;30.45;;;;;;;;;;4894676;29;20059;-87
2021/03/03 15:43:05;;;;;;;61.45;30.52;;;;;;;;;;4872894;29;20044;-92
2021/03/03 15:45:35;;;;;;;58.70;30.13;;;;;;;;;;4900196;29;20056;-90
2021/03/03 15:48:06;;;;;;;52.95;28.50;;;;;;;;;;4869837;29;20052;-90
2021/03/03 15:50:37;;;;;;;66.28;28.17;;;;;;;;;;4886178;29;20499;-90
2021/03/03 15:53:06;;;;;;;51.45;23.88;;;;;;;;;;4915322;29;20048;-89
2021/03/03 15:55:40;;;;;;;44.75;25.83;;;;;;;;;;4907071;29;20060;-90
2021/03/03 15:58:20;;;;;;;49.42;22.65;;;;;;;;;;4896431;29;20184;-88
2021/03/03 16:01:03;;;;;;;47.55;24.63;;;;;;;;;;4904909;29;20048;-90
2021/03/03 16:03:51;;;;;;;47.28;23.45;;;7.90;99.90;;;;;;4912099;29;20056;-90
2021/03/03 16:06:43;;;;;;;43.85;22.38;;;;;;;;;;4900448;29;20826;-89
2021/03/03 16:09:41;;;;;;;47.65;22.00;;;;;;;;;;4891340;29;20052;-93
2021/03/03 16:12:20;;;;;;;;;;;7.70;99.90;;;;;;4885276;29;20067;-90
2021/03/03 16:15:01;;;;;;;55.13;20.73;;;;;;;;;;4913690;29;19927;-91
2021/03/03 16:17:33;;;;;;;54.72;23.77;;;;;;;;;;4906522;29;20052;-91
2021/03/03 16:20:02;;;;;;;46.40;23.67;;;;;;;;;;4905581;29;20048;-89
2021/03/03 16:22:30;;;;;;;48.67;23.08;;;;;;;;;;4896387;29;20044;-88
2021/03/03 16:24:58;;;;;;;40.42;25.17;;;;;;;;;;4871474;29;20091;-90
2021/03/03 16:27:28;;;;;;;43.88;24.05;;;;;;;;;;4899038;29;20052;-91
2021/03/03 16:29:59;;;;;;;41.25;22.92;;;7.70;99.90;;;;;;4852697;29;20417;-87
2021/03/03 16:32:54;;;;;;;44.40;23.23;;;7.70;99.90;;;;;;4890140;29;20063;-89
2021/03/03 16:35:24;;;;;;;52.88;23.45;;;7.70;99.90;;;;;;4902078;29;20071;-88
2021/03/03 16:37:54;;;;;;;50.22;25.02;;;;;;;;;;4894528;29;20060;-90